createdAt,value
2022-10-31T00:01:15.358Z,3.60
2022-10-31T00:03:42.338Z,4.12
2022-10-31T00:06:09.232Z,3.80
2022-10-31T00:08:36.238Z,4.03
2022-10-31T00:11:03.158Z,3.20
2022-10-31T00:13:30.221Z,3.50
2022-10-31T00:15:57.086Z,3.50
2022-10-31T00:18:23.939Z,4.00
2022-10-31T00:20:52.791Z,5.07
2022-10-31T00:23:19.657Z,4.25
2022-10-31T00:25:46.485Z,3.70
2022-10-31T00:28:13.455Z,3.92
2022-10-31T00:30:40.377Z,3.45
2022-10-31T00:33:07.425Z,4.10
2022-10-31T00:35:34.310Z,3.58
2022-10-31T00:38:01.158Z,3.90
2022-10-31T00:40:28.108Z,3.60
2022-10-31T00:42:54.998Z,3.72
2022-10-31T00:45:21.918Z,3.17
2022-10-31T00:47:48.836Z,3.47
2022-10-31T00:50:15.803Z,3.87
2022-10-31T00:52:42.640Z,3.53
2022-10-31T00:55:09.549Z,3.08
2022-10-31T00:57:36.403Z,3.80
2022-10-31T01:00:04.059Z,3.45
2022-10-31T01:02:30.991Z,3.08
2022-10-31T01:04:57.979Z,3.20
2022-10-31T01:07:24.826Z,3.22
2022-10-31T01:09:51.695Z,3.05
2022-10-31T01:12:18.522Z,3.10
2022-10-31T01:14:46.389Z,2.90
2022-10-31T01:17:14.501Z,3.20
2022-10-31T01:19:41.408Z,3.00
2022-10-31T01:22:08.256Z,3.15
2022-10-31T01:24:35.139Z,3.62
2022-10-31T01:27:01.956Z,3.03
2022-10-31T01:29:28.870Z,3.58
2022-10-31T01:31:55.795Z,3.60
2022-10-31T01:34:22.616Z,4.53
2022-10-31T01:36:52.480Z,3.20
2022-10-31T01:39:23.378Z,3.47
2022-10-31T01:41:52.898Z,4.10
2022-10-31T01:44:19.694Z,4.12
2022-10-31T01:47:07.796Z,4.32
2022-10-31T01:49:41.824Z,3.72
2022-10-31T01:52:38.934Z,4.05
2022-10-31T01:55:30.312Z,4.07
2022-10-31T01:58:01.578Z,4.30
2022-10-31T02:00:29.165Z,4.07
2022-10-31T02:02:57.417Z,4.10
2022-10-31T02:05:26.581Z,4.03
2022-10-31T02:08:04.052Z,4.07
2022-10-31T02:10:33.409Z,3.50
2022-10-31T02:13:03.563Z,3.95
2022-10-31T02:15:32.203Z,3.60
2022-10-31T02:17:59.804Z,3.85
2022-10-31T02:20:31.072Z,3.33
2022-10-31T02:23:06.896Z,3.15
2022-10-31T02:25:53.245Z,3.60
2022-10-31T02:28:32.407Z,2.87
2022-10-31T02:31:58.986Z,2.78
2022-10-31T02:34:38.041Z,2.62
2022-10-31T02:37:14.912Z,2.97
2022-10-31T02:39:51.400Z,3.15
2022-10-31T02:42:42.731Z,2.78
2022-10-31T02:45:14.419Z,2.90
2022-10-31T02:47:43.106Z,2.92
2022-10-31T02:50:26.917Z,2.72
2022-10-31T02:52:54.698Z,3.17
2022-10-31T02:55:24.325Z,3.00
2022-10-31T02:57:55.895Z,3.50
2022-10-31T03:00:22.973Z,2.90
2022-10-31T03:03:04.648Z,3.00
2022-10-31T03:06:00.283Z,3.00
2022-10-31T03:08:59.151Z,2.87
2022-10-31T03:11:31.013Z,2.62
2022-10-31T03:13:59.324Z,2.80
2022-10-31T03:16:44.866Z,2.67
2022-10-31T03:19:28.064Z,4.37
2022-10-31T03:22:17.647Z,3.28
2022-10-31T03:24:44.897Z,3.80
2022-10-31T03:27:14.495Z,3.37
2022-10-31T03:29:41.909Z,3.33
2022-10-31T03:32:12.277Z,4.53
2022-10-31T03:34:41.475Z,2.80
2022-10-31T03:37:12.240Z,2.92
2022-10-31T03:39:40.402Z,3.87
2022-10-31T03:42:10.838Z,3.33
2022-10-31T03:44:39.796Z,3.37
2022-10-31T03:47:06.753Z,3.00
2022-10-31T03:49:34.140Z,3.40
2022-10-31T03:52:30.368Z,3.65
2022-10-31T03:55:32.831Z,5.03
2022-10-31T03:58:14.699Z,4.30
2022-10-31T04:00:43.765Z,3.83
2022-10-31T04:03:27.007Z,3.17
2022-10-31T04:05:56.581Z,3.10
2022-10-31T04:08:27.898Z,2.78
2022-10-31T04:10:55.812Z,3.67
2022-10-31T04:13:27.195Z,3.95
2022-10-31T04:15:55.557Z,2.87
2022-10-31T04:18:24.203Z,3.58
2022-10-31T04:21:01.080Z,2.62
2022-10-31T04:23:28.604Z,3.65
2022-10-31T04:25:55.493Z,3.00
2022-10-31T04:28:22.376Z,2.87
2022-10-31T04:30:49.387Z,4.47
2022-10-31T04:33:16.404Z,3.72
2022-10-31T04:35:43.269Z,3.05
2022-10-31T04:38:10.174Z,4.10
2022-10-31T04:40:36.995Z,4.90
2022-10-31T04:43:04.307Z,5.68
2022-10-31T04:45:31.311Z,5.30
2022-10-31T04:47:58.540Z,5.75
2022-10-31T04:50:25.659Z,4.45
2022-10-31T04:52:52.530Z,5.57
2022-10-31T04:55:19.375Z,5.15
2022-10-31T04:57:48.018Z,4.28
2022-10-31T05:00:16.934Z,3.30
2022-10-31T05:02:50.356Z,3.50
2022-10-31T05:05:18.996Z,4.78
2022-10-31T05:07:47.557Z,3.62
2022-10-31T05:10:17.353Z,5.57
2022-10-31T05:12:49.177Z,3.70
2022-10-31T05:15:16.780Z,3.90
2022-10-31T05:17:43.970Z,3.80
2022-10-31T05:20:12.595Z,4.72
2022-10-31T05:22:46.238Z,4.10
2022-10-31T05:25:13.353Z,4.00
2022-10-31T05:27:44.177Z,3.80
2022-10-31T05:30:12.466Z,3.20
2022-10-31T05:32:43.940Z,4.40
2022-10-31T05:35:16.442Z,3.22
2022-10-31T05:37:43.276Z,3.50
2022-10-31T05:40:12.004Z,3.12
2022-10-31T05:42:42.782Z,6.00
2022-10-31T05:45:11.478Z,3.42
2022-10-31T05:47:38.385Z,3.28
2022-10-31T05:50:05.856Z,3.60
2022-10-31T05:52:32.983Z,3.58
2022-10-31T05:54:59.847Z,2.97
2022-10-31T05:57:26.767Z,3.12
2022-10-31T05:59:56.573Z,3.65
2022-10-31T06:02:23.409Z,3.65
2022-10-31T06:04:50.331Z,3.33
2022-10-31T06:07:17.238Z,3.10
2022-10-31T06:09:44.129Z,3.83
2022-10-31T06:12:11.057Z,3.28
2022-10-31T06:14:37.917Z,3.20
2022-10-31T06:17:04.773Z,3.12
2022-10-31T06:19:31.705Z,3.30
2022-10-31T06:21:58.526Z,3.90
2022-10-31T06:24:25.361Z,4.05
2022-10-31T06:26:52.251Z,4.87
2022-10-31T06:29:19.117Z,4.03
2022-10-31T06:31:45.930Z,3.60
2022-10-31T06:34:12.800Z,3.83
2022-10-31T06:36:39.637Z,4.70
2022-10-31T06:39:06.518Z,4.30
2022-10-31T06:41:33.379Z,3.60
2022-10-31T06:44:04.882Z,3.90
2022-10-31T06:46:34.951Z,3.97
2022-10-31T06:49:01.900Z,4.28
2022-10-31T06:51:28.780Z,3.97
2022-10-31T06:53:55.608Z,4.25
2022-10-31T06:56:22.461Z,3.97
2022-10-31T06:58:49.371Z,4.35
2022-10-31T07:01:16.310Z,3.95
2022-10-31T07:03:43.239Z,3.75
2022-10-31T07:06:10.120Z,3.45
2022-10-31T07:08:36.999Z,3.83
2022-10-31T07:11:03.892Z,4.47
2022-10-31T07:13:30.794Z,4.15
2022-10-31T07:16:02.370Z,4.00
2022-10-31T07:18:29.464Z,4.80
2022-10-31T07:20:56.361Z,4.45
2022-10-31T07:23:23.568Z,4.25
2022-10-31T07:25:56.334Z,3.78
2022-10-31T07:28:23.703Z,3.92
2022-10-31T07:30:52.285Z,4.20
2022-10-31T07:33:19.199Z,3.45
2022-10-31T07:35:46.362Z,3.70
2022-10-31T07:38:14.679Z,4.57
2022-10-31T07:40:42.730Z,4.43
2022-10-31T07:43:13.964Z,4.82
2022-10-31T07:45:42.029Z,3.72
2022-10-31T07:48:08.909Z,3.70
2022-10-31T07:50:35.891Z,4.22
2022-10-31T07:53:05.488Z,5.10
2022-10-31T07:55:33.050Z,4.90
2022-10-31T07:58:05.638Z,4.30
2022-10-31T08:00:34.118Z,5.03
2022-10-31T08:03:11.978Z,4.82
2022-10-31T08:05:39.382Z,5.47
2022-10-31T08:08:06.783Z,6.55
2022-10-31T08:10:34.534Z,7.35
2022-10-31T08:13:10.029Z,5.85
2022-10-31T08:15:39.389Z,6.10
2022-10-31T08:18:16.028Z,6.85
2022-10-31T08:20:45.844Z,7.93
2022-10-31T08:23:13.641Z,7.20
2022-10-31T08:25:40.775Z,6.43
2022-10-31T08:28:08.137Z,7.57
2022-10-31T08:30:37.249Z,7.50
2022-10-31T08:33:15.185Z,5.40
2022-10-31T08:35:42.205Z,11.90
2022-10-31T08:38:11.343Z,6.25
2022-10-31T08:40:38.774Z,8.18
2022-10-31T08:43:16.731Z,6.70
2022-10-31T08:45:44.576Z,7.22
2022-10-31T08:48:16.864Z,8.85
2022-10-31T08:50:45.255Z,7.12
2022-10-31T08:53:19.277Z,6.53
2022-10-31T08:55:47.358Z,8.27
2022-10-31T08:58:17.138Z,8.68
2022-10-31T09:00:44.767Z,8.15
2022-10-31T09:03:19.831Z,7.45
2022-10-31T09:05:47.013Z,8.05
2022-10-31T09:08:16.665Z,7.53
2022-10-31T09:10:44.188Z,7.55
2022-10-31T09:13:15.317Z,7.82
2022-10-31T09:15:44.938Z,6.65
2022-10-31T09:18:12.707Z,5.45
2022-10-31T09:20:40.849Z,5.57
2022-10-31T09:23:11.325Z,6.28
2022-10-31T09:25:38.637Z,6.30
2022-10-31T09:28:06.781Z,7.47
2022-10-31T09:30:35.247Z,6.78
2022-10-31T09:33:11.252Z,5.68
2022-10-31T09:35:38.740Z,5.62
2022-10-31T09:38:07.807Z,6.93
2022-10-31T09:40:45.596Z,5.97
2022-10-31T09:43:34.484Z,5.80
2022-10-31T09:46:17.931Z,6.22
2022-10-31T09:49:03.521Z,5.85
2022-10-31T09:51:33.612Z,5.47
2022-10-31T09:54:06.379Z,5.18
2022-10-31T09:56:33.701Z,4.78
2022-10-31T09:59:02.235Z,5.35
2022-10-31T10:01:36.223Z,5.50
2022-10-31T10:04:16.896Z,5.20
2022-10-31T10:06:48.968Z,4.97
2022-10-31T10:09:15.852Z,5.65
2022-10-31T10:11:56.532Z,6.55
2022-10-31T10:14:36.256Z,4.90
2022-10-31T10:17:18.745Z,5.32
2022-10-31T10:20:14.909Z,5.53
2022-10-31T10:22:52.006Z,7.07
2022-10-31T10:25:24.731Z,7.25
2022-10-31T10:28:05.987Z,6.72
2022-10-31T10:30:51.641Z,6.37
2022-10-31T10:33:42.636Z,6.85
2022-10-31T10:36:19.234Z,7.57
2022-10-31T10:38:52.677Z,7.40
2022-10-31T10:41:24.190Z,8.02
2022-10-31T10:43:51.999Z,6.75
2022-10-31T10:46:50.837Z,7.18
2022-10-31T10:49:21.961Z,7.10
2022-10-31T10:55:28.804Z,7.25
2022-10-31T10:58:07.698Z,6.45
2022-10-31T11:00:42.273Z,6.85
2022-10-31T11:03:09.970Z,6.37
2022-10-31T11:05:56.211Z,6.12
2022-10-31T11:08:30.008Z,6.55
2022-10-31T11:11:18.074Z,6.30
2022-10-31T11:13:50.625Z,6.62
2022-10-31T11:16:39.573Z,6.90
2022-10-31T11:19:13.778Z,6.43
2022-10-31T11:21:40.630Z,6.35
2022-10-31T11:24:10.430Z,6.30
2022-10-31T11:26:41.564Z,6.95
2022-10-31T11:29:22.332Z,6.72
2022-10-31T11:31:52.962Z,7.32
2022-10-31T11:34:38.367Z,7.82
2022-10-31T11:37:18.057Z,7.95
2022-10-31T11:39:54.180Z,8.43
2022-10-31T11:42:26.812Z,7.40
2022-10-31T11:44:55.309Z,8.32
2022-10-31T11:47:30.066Z,7.65
2022-10-31T11:49:57.722Z,8.30
2022-10-31T11:52:27.010Z,8.07
2022-10-31T11:54:57.491Z,7.20
2022-10-31T11:57:32.945Z,8.23
2022-10-31T12:00:01.622Z,7.28
2022-10-31T12:02:28.790Z,8.70
2022-10-31T12:05:04.111Z,9.20
2022-10-31T12:07:31.415Z,8.85
2022-10-31T12:09:58.855Z,8.52
2022-10-31T12:12:41.687Z,8.82
2022-10-31T12:15:26.499Z,9.43
2022-10-31T12:18:03.803Z,8.10
2022-10-31T12:20:54.433Z,7.95
2022-10-31T12:23:31.148Z,8.63
2022-10-31T12:26:26.464Z,8.90
2022-10-31T12:29:30.673Z,9.20
2022-10-31T12:32:16.512Z,8.25
2022-10-31T12:34:53.068Z,8.15
2022-10-31T12:37:33.446Z,8.20
2022-10-31T12:40:17.177Z,8.65
2022-10-31T12:43:02.977Z,9.32
2022-10-31T12:45:36.808Z,9.68
2022-10-31T12:48:18.356Z,8.30
2022-10-31T12:50:59.870Z,12.07
2022-10-31T12:53:35.900Z,12.15
2022-10-31T12:56:34.388Z,11.12
2022-10-31T12:59:08.784Z,10.50
2022-10-31T13:01:36.562Z,9.73
2022-10-31T13:04:21.592Z,9.30
2022-10-31T13:06:51.572Z,9.90
2022-10-31T13:09:28.730Z,9.07
2022-10-31T13:14:43.501Z,11.07
2022-10-31T13:17:25.597Z,9.82
2022-10-31T13:19:54.665Z,11.30
2022-10-31T13:22:28.753Z,10.13
2022-10-31T13:25:00.769Z,10.63
2022-10-31T13:28:01.133Z,10.25
2022-10-31T13:30:33.733Z,9.52
2022-10-31T13:33:09.434Z,11.27
2022-10-31T13:36:04.446Z,9.15
2022-10-31T13:38:53.611Z,12.18
2022-10-31T13:41:28.595Z,8.50
2022-10-31T13:44:06.320Z,8.30
2022-10-31T13:46:33.195Z,7.60
2022-10-31T13:49:00.320Z,8.35
2022-10-31T13:51:29.552Z,9.88
2022-10-31T13:53:56.359Z,10.73
2022-10-31T13:56:29.294Z,10.40
2022-10-31T13:59:02.835Z,9.68
2022-10-31T14:01:30.852Z,10.85
2022-10-31T14:04:17.029Z,9.65
2022-10-31T14:07:15.481Z,7.47
2022-10-31T14:10:07.780Z,8.60
2022-10-31T14:12:46.192Z,10.32
2022-10-31T14:15:24.996Z,7.15
2022-10-31T14:17:51.784Z,6.80
2022-10-31T14:20:34.093Z,5.60
2022-10-31T14:23:26.751Z,6.22
2022-10-31T14:25:53.611Z,7.60
2022-10-31T14:28:23.928Z,5.97
2022-10-31T14:30:58.659Z,7.78
2022-10-31T14:33:30.690Z,7.47
2022-10-31T14:36:02.887Z,6.22
2022-10-31T14:38:32.328Z,6.07
2022-10-31T14:41:25.293Z,6.20
2022-10-31T14:44:15.409Z,6.43
2022-10-31T14:46:45.518Z,6.25
2022-10-31T14:49:51.073Z,5.57
2022-10-31T14:52:18.725Z,6.37
2022-10-31T14:54:51.259Z,5.68
2022-10-31T14:57:22.702Z,6.10
2022-10-31T15:00:00.659Z,5.97
2022-10-31T15:02:40.757Z,5.03
2022-10-31T15:05:12.417Z,5.10
2022-10-31T15:07:50.854Z,6.72
2022-10-31T15:10:30.911Z,6.05
2022-10-31T15:12:58.117Z,7.10
2022-10-31T15:15:27.106Z,7.85
2022-10-31T15:17:59.565Z,10.50
2022-10-31T15:20:32.518Z,9.63
2022-10-31T15:23:00.243Z,9.02
2022-10-31T15:25:31.710Z,7.90
2022-10-31T15:27:58.694Z,10.20
2022-10-31T15:30:29.967Z,5.60
2022-10-31T15:32:58.996Z,4.93
2022-10-31T15:35:31.577Z,4.87
2022-10-31T15:38:01.134Z,9.57
2022-10-31T15:40:29.254Z,5.37
2022-10-31T15:43:04.903Z,10.60
2022-10-31T15:45:32.241Z,5.87
2022-10-31T15:48:02.659Z,16.42
2022-10-31T15:50:37.547Z,15.57
2022-10-31T15:53:06.080Z,8.25
2022-10-31T15:55:39.290Z,18.27
2022-10-31T15:58:13.321Z,13.07
2022-10-31T16:00:40.312Z,7.35
2022-10-31T16:03:08.567Z,22.20
2022-10-31T16:05:48.918Z,8.02
2022-10-31T16:08:28.061Z,7.20
2022-10-31T16:10:55.327Z,27.37
2022-10-31T16:13:29.714Z,23.65
2022-10-31T16:16:21.624Z,12.55
2022-10-31T16:18:47.959Z,7.93
2022-10-31T16:21:15.123Z,12.37
2022-10-31T16:23:47.447Z,22.05
2022-10-31T16:26:18.661Z,20.05
2022-10-31T16:29:03.224Z,8.77
2022-10-31T16:31:38.912Z,6.60
2022-10-31T16:34:15.695Z,7.00
2022-10-31T16:36:42.975Z,8.30
2022-10-31T16:39:10.099Z,20.02
2022-10-31T16:41:41.170Z,9.70
2022-10-31T16:44:21.065Z,6.07
2022-10-31T16:46:48.031Z,12.88
2022-10-31T16:49:16.661Z,15.43
2022-10-31T16:51:44.113Z,30.08
2022-10-31T16:54:11.943Z,25.42
2022-10-31T16:56:39.580Z,9.23
2022-10-31T16:59:15.670Z,9.10
2022-10-31T17:01:45.969Z,13.27
2022-10-31T17:04:14.865Z,28.35
2022-10-31T17:06:42.574Z,22.35
2022-10-31T17:09:09.987Z,9.52
2022-10-31T17:11:37.513Z,24.90
2022-10-31T17:14:04.918Z,8.77
2022-10-31T17:16:31.819Z,17.87
2022-10-31T17:18:58.744Z,9.38
2022-10-31T17:21:26.515Z,13.77
2022-10-31T17:23:53.337Z,22.55
2022-10-31T17:26:20.614Z,23.00
2022-10-31T17:28:47.504Z,29.80
2022-10-31T17:31:24.496Z,28.60
2022-10-31T17:33:51.480Z,19.37
2022-10-31T17:36:18.369Z,7.05
2022-10-31T17:38:45.214Z,28.85
2022-10-31T17:41:12.085Z,28.05
2022-10-31T17:43:39.000Z,22.02
2022-10-31T17:46:07.099Z,21.12
2022-10-31T17:48:35.650Z,13.85
2022-10-31T17:51:06.805Z,20.25
2022-10-31T17:53:34.728Z,10.07
2022-10-31T17:56:06.798Z,29.92
2022-10-31T17:58:35.242Z,12.40
2022-10-31T18:01:13.863Z,28.75
2022-10-31T18:03:41.346Z,8.52
2022-10-31T18:06:09.099Z,23.90
2022-10-31T18:08:37.211Z,28.87
2022-10-31T18:11:11.863Z,19.25
2022-10-31T18:13:39.340Z,11.60
2022-10-31T18:16:16.857Z,8.90
2022-10-31T18:18:43.765Z,20.45
2022-10-31T18:21:10.761Z,7.15
2022-10-31T18:23:37.649Z,8.82
2022-10-31T18:26:04.698Z,24.37
2022-10-31T18:28:31.577Z,16.67
2022-10-31T18:31:01.257Z,11.02
2022-10-31T18:33:28.596Z,22.27
2022-10-31T18:35:55.837Z,11.52
2022-10-31T18:38:23.201Z,14.52
2022-10-31T18:40:51.689Z,19.37
2022-10-31T18:43:18.583Z,32.33
2022-10-31T18:45:48.092Z,7.85
2022-10-31T18:48:16.016Z,7.15
2022-10-31T18:50:43.475Z,6.00
2022-10-31T18:53:10.631Z,14.48
2022-10-31T18:55:47.211Z,8.23
2022-10-31T18:58:17.121Z,19.65
2022-10-31T19:00:44.984Z,9.77
2022-10-31T19:03:12.458Z,18.35
2022-10-31T19:05:39.352Z,8.05
2022-10-31T19:08:06.477Z,24.25
2022-10-31T19:10:37.666Z,16.83
2022-10-31T19:13:05.364Z,24.27
2022-10-31T19:15:34.522Z,22.27
2022-10-31T19:18:01.394Z,9.48
2022-10-31T19:20:28.275Z,21.02
2022-10-31T19:22:55.095Z,28.35
2022-10-31T19:25:22.071Z,9.63
2022-10-31T19:27:48.985Z,18.30
2022-10-31T19:30:16.168Z,29.12
2022-10-31T19:32:43.027Z,22.08
2022-10-31T19:35:11.159Z,10.05
2022-10-31T19:37:39.799Z,18.77
2022-10-31T19:40:09.006Z,10.10
2022-10-31T19:42:35.932Z,19.12
2022-10-31T19:45:03.837Z,16.12
2022-10-31T19:47:30.926Z,28.08
2022-10-31T19:49:57.797Z,16.60
2022-10-31T19:52:24.695Z,11.38
2022-10-31T19:54:51.524Z,9.75
2022-10-31T19:57:20.591Z,11.98
2022-10-31T19:59:53.537Z,24.83
2022-10-31T20:02:21.187Z,11.27
2022-10-31T20:04:48.037Z,11.12
2022-10-31T20:07:14.865Z,20.88
2022-10-31T20:09:41.735Z,23.60
2022-10-31T20:12:08.614Z,19.87
2022-10-31T20:14:35.568Z,15.75
2022-10-31T20:17:02.428Z,14.45
2022-10-31T20:19:29.342Z,20.67
2022-10-31T20:21:56.331Z,9.13
2022-10-31T20:24:23.173Z,15.13
2022-10-31T20:26:50.055Z,22.40
2022-10-31T20:29:16.969Z,18.45
2022-10-31T20:31:45.896Z,19.98
2022-10-31T20:34:13.446Z,10.90
2022-10-31T20:36:40.326Z,25.52
2022-10-31T20:39:07.145Z,16.17
2022-10-31T20:41:36.823Z,10.00
2022-10-31T20:44:03.776Z,13.88
2022-10-31T20:46:31.259Z,26.20
2022-10-31T20:48:58.237Z,27.67
2022-10-31T20:51:31.920Z,25.35
2022-10-31T20:53:59.978Z,13.93
2022-10-31T20:56:28.179Z,27.15
2022-10-31T20:58:56.277Z,20.42
2022-10-31T21:01:27.968Z,13.40
2022-10-31T21:03:55.161Z,21.67
2022-10-31T21:06:23.479Z,10.88
2022-10-31T21:08:51.197Z,29.80
2022-10-31T21:11:21.402Z,20.12
2022-10-31T21:13:49.689Z,24.30
2022-10-31T21:16:22.396Z,23.08
2022-10-31T21:18:49.910Z,18.50
2022-10-31T21:21:27.620Z,17.80
2022-10-31T21:24:01.964Z,19.62
2022-10-31T21:26:30.319Z,19.55
2022-10-31T21:28:58.759Z,17.23
2022-10-31T21:31:26.069Z,19.55
2022-10-31T21:33:52.897Z,22.15
2022-10-31T21:36:19.780Z,13.38
2022-10-31T21:38:53.181Z,21.35
2022-10-31T21:41:20.664Z,16.48
2022-10-31T21:43:48.744Z,16.30
2022-10-31T21:46:18.411Z,27.37
2022-10-31T21:48:46.226Z,32.72
2022-10-31T21:51:20.025Z,24.87
2022-10-31T21:54:05.540Z,29.95
2022-10-31T21:56:32.901Z,30.35
2022-10-31T21:58:59.986Z,22.33
2022-10-31T22:01:28.594Z,13.70
2022-10-31T22:03:56.325Z,23.83
2022-10-31T22:06:23.341Z,28.30
2022-10-31T22:08:50.191Z,30.42
2022-10-31T22:11:18.439Z,30.40
2022-10-31T22:13:47.590Z,22.87
2022-10-31T22:16:17.000Z,17.17
2022-10-31T22:18:44.438Z,20.05
2022-10-31T22:21:13.867Z,23.17
2022-10-31T22:23:40.850Z,21.55
2022-10-31T22:26:16.385Z,20.55
2022-10-31T22:28:50.119Z,27.05
2022-10-31T22:31:19.363Z,11.43
2022-10-31T22:33:47.011Z,22.02
2022-10-31T22:36:17.090Z,18.65
2022-10-31T22:38:44.684Z,24.77
2022-10-31T22:41:16.883Z,23.85
2022-10-31T22:43:43.858Z,18.62
2022-10-31T22:46:12.962Z,12.93
2022-10-31T22:48:42.865Z,23.80
2022-10-31T22:51:12.369Z,11.52
2022-10-31T22:53:39.927Z,17.70
2022-10-31T22:56:08.409Z,26.08
2022-10-31T22:58:35.427Z,20.10
2022-10-31T23:01:13.718Z,21.95
2022-10-31T23:03:40.871Z,25.35
2022-10-31T23:06:10.046Z,21.05
2022-10-31T23:08:38.380Z,20.58
2022-10-31T23:11:15.393Z,19.35
2022-10-31T23:14:00.883Z,20.83
2022-10-31T23:16:27.840Z,21.08
2022-10-31T23:18:54.671Z,18.20
2022-10-31T23:21:40.272Z,21.83
2022-10-31T23:24:07.244Z,27.23
2022-10-31T23:26:52.691Z,16.85
2022-10-31T23:29:19.604Z,17.52
2022-10-31T23:31:48.076Z,25.02
2022-10-31T23:34:14.901Z,27.87
2022-10-31T23:36:41.736Z,27.25
2022-10-31T23:39:08.668Z,13.32
2022-10-31T23:41:36.502Z,23.90
2022-10-31T23:44:03.423Z,19.37
2022-10-31T23:46:30.318Z,20.45
2022-10-31T23:48:57.235Z,21.25
2022-10-31T23:51:24.065Z,27.13
2022-10-31T23:53:50.925Z,18.08
2022-10-31T23:56:17.810Z,27.37
2022-10-31T23:58:44.657Z,20.23
